createdAt,value
2023-01-22T00:02:08.604Z,101155.69
2023-01-22T00:04:21.210Z,101155.88
2023-01-22T00:06:33.803Z,101165.27
2023-01-22T00:08:48.147Z,101167.14
2023-01-22T00:11:01.373Z,101168.67
2023-01-22T00:13:13.984Z,101174.33
2023-01-22T00:15:26.529Z,101173.27
2023-01-22T00:17:39.069Z,101167.13
2023-01-22T00:19:51.644Z,101167.17
2023-01-22T00:22:04.260Z,101166.81
2023-01-22T00:24:17.459Z,101165.60
2023-01-22T00:26:30.047Z,101169.88
2023-01-22T00:28:45.411Z,101177.58
2023-01-22T00:30:59.546Z,101175.17
2023-01-22T00:33:12.195Z,101172.57
2023-01-22T00:35:24.789Z,101171.71
2023-01-22T00:37:37.371Z,101171.36
2023-01-22T00:39:50.124Z,101168.11
2023-01-22T00:42:02.658Z,101177.17
2023-01-22T00:44:15.631Z,101184.23
2023-01-22T00:46:28.215Z,101187.84
2023-01-22T00:48:41.369Z,101195.70
2023-01-22T00:50:53.915Z,101199.80
2023-01-22T00:53:06.446Z,101197.41
2023-01-22T00:55:19.103Z,101190.37
2023-01-22T00:57:31.701Z,101200.61
2023-01-22T00:59:45.654Z,101197.36
2023-01-22T01:01:58.241Z,101198.57
2023-01-22T01:04:10.824Z,101204.73
2023-01-22T01:06:23.340Z,101209.49
2023-01-22T01:08:38.745Z,101207.60
2023-01-22T01:10:59.020Z,101210.34
2023-01-22T01:13:12.477Z,101212.89
2023-01-22T01:15:25.037Z,101217.80
2023-01-22T01:17:37.834Z,101222.39
2023-01-22T01:19:50.452Z,101223.95
2023-01-22T01:22:03.006Z,101230.45
2023-01-22T01:24:15.602Z,101232.70
2023-01-22T01:26:28.962Z,101227.42
2023-01-22T01:28:42.566Z,101231.86
2023-01-22T01:30:55.137Z,101229.98
2023-01-22T01:33:07.828Z,101226.00
2023-01-22T01:35:21.616Z,101230.10
2023-01-22T01:37:35.804Z,101233.86
2023-01-22T01:39:52.375Z,101237.14
2023-01-22T01:42:04.976Z,101239.85
2023-01-22T01:44:20.896Z,101234.69
2023-01-22T01:46:39.134Z,101235.69
2023-01-22T01:48:55.015Z,101235.49
2023-01-22T01:51:21.654Z,101239.57
2023-01-22T01:53:34.875Z,101241.75
2023-01-22T01:55:48.509Z,101241.23
2023-01-22T01:58:07.053Z,101242.98
2023-01-22T02:00:20.786Z,101246.08
2023-01-22T02:02:33.289Z,101253.44
2023-01-22T02:04:46.910Z,101253.27
2023-01-22T02:06:59.631Z,101248.17
2023-01-22T02:09:13.178Z,101248.33
2023-01-22T02:11:27.840Z,101254.63
2023-01-22T02:13:46.390Z,101257.19
2023-01-22T02:15:59.129Z,101259.11
2023-01-22T02:18:11.773Z,101260.50
2023-01-22T02:20:24.372Z,101258.82
2023-01-22T02:22:39.300Z,101263.10
2023-01-22T02:24:51.972Z,101266.19
2023-01-22T02:27:04.620Z,101267.38
2023-01-22T02:29:17.225Z,101266.02
2023-01-22T02:31:29.879Z,101266.70
2023-01-22T02:33:42.489Z,101267.20
2023-01-22T02:35:55.001Z,101266.04
2023-01-22T02:38:07.590Z,101271.72
2023-01-22T02:40:20.466Z,101273.46
2023-01-22T02:42:33.506Z,101271.92
2023-01-22T02:44:46.024Z,101274.66
2023-01-22T02:46:58.827Z,101277.38
2023-01-22T02:49:11.487Z,101279.61
2023-01-22T02:51:24.522Z,101281.83
2023-01-22T02:53:37.107Z,101286.96
2023-01-22T02:55:49.715Z,101286.80
2023-01-22T02:58:02.322Z,101284.78
2023-01-22T03:00:15.294Z,101288.75
2023-01-22T03:02:28.147Z,101286.52
2023-01-22T03:04:40.764Z,101290.33
2023-01-22T03:06:53.369Z,101290.20
2023-01-22T03:09:07.048Z,101288.73
2023-01-22T03:11:19.653Z,101290.80
2023-01-22T03:13:50.978Z,101287.89
2023-01-22T03:16:22.506Z,101288.25
2023-01-22T03:18:54.061Z,101287.44
2023-01-22T03:21:20.170Z,101293.12
2023-01-22T03:23:32.791Z,101290.92
2023-01-22T03:25:45.335Z,101295.03
2023-01-22T03:28:16.502Z,101293.90
2023-01-22T03:30:29.168Z,101295.11
2023-01-22T03:32:41.683Z,101300.77
2023-01-22T03:34:54.340Z,101301.41
2023-01-22T03:37:08.340Z,101296.92
2023-01-22T03:39:21.108Z,101296.38
2023-01-22T03:41:33.824Z,101295.21
2023-01-22T03:43:46.743Z,101297.27
2023-01-22T03:46:06.134Z,101294.75
2023-01-22T03:48:18.721Z,101293.85
2023-01-22T03:50:31.324Z,101296.96
2023-01-22T03:52:43.933Z,101300.92
2023-01-22T03:54:56.488Z,101304.52
2023-01-22T03:57:08.984Z,101306.03
2023-01-22T03:59:21.758Z,101307.54
2023-01-22T04:01:34.851Z,101307.37
2023-01-22T04:03:48.357Z,101309.44
2023-01-22T04:06:01.711Z,101310.84
2023-01-22T04:08:14.367Z,101307.70
2023-01-22T04:10:26.962Z,101307.34
2023-01-22T04:12:39.541Z,101306.16
2023-01-22T04:14:52.131Z,101307.21
2023-01-22T04:17:04.787Z,101309.98
2023-01-22T04:19:17.307Z,101308.82
2023-01-22T04:21:29.852Z,101318.44
2023-01-22T04:23:42.533Z,101317.61
2023-01-22T04:25:55.140Z,101316.55
2023-01-22T04:28:08.519Z,101323.52
2023-01-22T04:30:21.499Z,101327.16
2023-01-22T04:32:34.021Z,101324.05
2023-01-22T04:34:47.481Z,101326.45
2023-01-22T04:37:00.142Z,101325.21
2023-01-22T04:39:12.811Z,101327.23
2023-01-22T04:41:25.328Z,101327.54
2023-01-22T04:43:39.033Z,101333.16
2023-01-22T04:45:51.627Z,101329.39
2023-01-22T04:48:04.575Z,101326.16
2023-01-22T04:50:29.839Z,101330.95
2023-01-22T04:52:42.667Z,101330.59
2023-01-22T04:54:55.327Z,101329.77
2023-01-22T04:57:07.901Z,101323.14
2023-01-22T04:59:20.530Z,101325.70
2023-01-22T05:01:33.165Z,101323.67
2023-01-22T05:03:45.832Z,101328.29
2023-01-22T05:06:02.919Z,101329.13
2023-01-22T05:08:15.505Z,101328.62
2023-01-22T05:10:28.336Z,101335.23
2023-01-22T05:12:40.935Z,101334.53
2023-01-22T05:14:53.587Z,101342.05
2023-01-22T05:17:06.459Z,101348.19
2023-01-22T05:19:19.071Z,101350.22
2023-01-22T05:21:31.643Z,101360.98
2023-01-22T05:23:44.437Z,101367.39
2023-01-22T05:25:57.018Z,101370.75
2023-01-22T05:28:09.547Z,101372.13
2023-01-22T05:30:22.160Z,101369.89
2023-01-22T05:32:34.798Z,101377.56
2023-01-22T05:34:47.416Z,101378.05
2023-01-22T05:36:59.964Z,101384.54
2023-01-22T05:39:12.653Z,101388.98
2023-01-22T05:41:25.502Z,101395.30
2023-01-22T05:43:39.021Z,101398.17
2023-01-22T05:45:51.722Z,101400.71
2023-01-22T05:48:04.397Z,101401.77
2023-01-22T05:50:17.281Z,101395.78
2023-01-22T05:52:30.072Z,101400.90
2023-01-22T05:54:42.637Z,101403.10
2023-01-22T05:56:55.333Z,101401.20
2023-01-22T05:59:07.897Z,101398.30
2023-01-22T06:01:20.465Z,101395.40
2023-01-22T06:03:33.148Z,101394.56
2023-01-22T06:05:45.788Z,101396.98
2023-01-22T06:07:58.388Z,101395.46
2023-01-22T06:10:11.119Z,101390.86
2023-01-22T06:12:23.716Z,101399.16
2023-01-22T06:14:36.269Z,101403.83
2023-01-22T06:16:48.921Z,101402.71
2023-01-22T06:19:01.587Z,101404.83
2023-01-22T06:21:14.169Z,101405.55
2023-01-22T06:23:27.920Z,101411.70
2023-01-22T06:25:40.680Z,101410.92
2023-01-22T06:27:53.261Z,101411.16
2023-01-22T06:30:06.555Z,101412.60
2023-01-22T06:32:19.077Z,101413.84
2023-01-22T06:34:31.612Z,101416.76
2023-01-22T06:36:44.191Z,101413.81
2023-01-22T06:38:56.880Z,101416.04
2023-01-22T06:41:10.061Z,101425.30
2023-01-22T06:43:23.712Z,101427.75
2023-01-22T06:45:38.131Z,101428.34
2023-01-22T06:47:50.723Z,101427.69
2023-01-22T06:50:03.865Z,101430.81
2023-01-22T06:52:16.553Z,101436.83
2023-01-22T06:54:29.091Z,101433.08
2023-01-22T06:56:41.662Z,101429.46
2023-01-22T06:58:54.250Z,101437.66
2023-01-22T07:01:06.991Z,101434.38
2023-01-22T07:03:20.084Z,101438.44
2023-01-22T07:05:33.811Z,101446.64
2023-01-22T07:07:47.403Z,101450.74
2023-01-22T07:10:01.892Z,101452.25
2023-01-22T07:12:14.433Z,101451.33
2023-01-22T07:14:36.442Z,101455.23
2023-01-22T07:16:49.842Z,101458.63
2023-01-22T07:19:02.613Z,101459.30
2023-01-22T07:21:15.221Z,101459.13
2023-01-22T07:23:29.002Z,101459.47
2023-01-22T07:25:42.045Z,101466.49
2023-01-22T07:28:02.441Z,101465.48
2023-01-22T07:30:15.341Z,101466.02
2023-01-22T07:32:27.940Z,101470.33
2023-01-22T07:34:40.501Z,101470.70
2023-01-22T07:36:53.130Z,101473.11
2023-01-22T07:39:06.211Z,101473.29
2023-01-22T07:41:25.815Z,101475.00
2023-01-22T07:43:38.833Z,101483.16
2023-01-22T07:45:51.430Z,101482.40
2023-01-22T07:48:07.644Z,101487.40
2023-01-22T07:50:25.512Z,101488.45
2023-01-22T07:52:38.022Z,101490.20
2023-01-22T07:54:50.624Z,101496.41
2023-01-22T07:57:04.062Z,101499.52
2023-01-22T07:59:16.698Z,101503.42
2023-01-22T08:01:29.279Z,101500.52
2023-01-22T08:03:41.883Z,101502.45
2023-01-22T08:05:54.470Z,101498.52
2023-01-22T08:08:13.454Z,101503.84
2023-01-22T08:10:26.001Z,101508.08
2023-01-22T08:12:41.615Z,101507.87
2023-01-22T08:14:54.134Z,101504.38
2023-01-22T08:17:06.695Z,101504.40
2023-01-22T08:19:19.198Z,101503.77
2023-01-22T08:21:32.704Z,101501.77
2023-01-22T08:23:48.914Z,101498.53
2023-01-22T08:26:04.051Z,101499.23
2023-01-22T08:28:16.633Z,101501.96
2023-01-22T08:30:29.189Z,101502.20
2023-01-22T08:32:44.886Z,101504.55
2023-01-22T08:34:57.563Z,101500.06
2023-01-22T08:37:10.387Z,101500.52
2023-01-22T08:39:22.935Z,101508.02
2023-01-22T08:41:35.516Z,101513.92
2023-01-22T08:43:48.060Z,101517.38
2023-01-22T08:46:00.712Z,101520.26
2023-01-22T08:48:13.357Z,101522.66
2023-01-22T08:50:27.148Z,101525.41
2023-01-22T08:52:40.023Z,101524.58
2023-01-22T08:54:52.617Z,101521.90
2023-01-22T08:57:05.291Z,101526.42
2023-01-22T08:59:17.833Z,101528.20
2023-01-22T09:01:30.520Z,101537.86
2023-01-22T09:03:43.635Z,101544.73
2023-01-22T09:05:58.034Z,101540.37
2023-01-22T09:08:10.622Z,101541.89
2023-01-22T09:10:25.714Z,101540.52
2023-01-22T09:12:40.035Z,101537.98
2023-01-22T09:14:52.596Z,101532.36
2023-01-22T09:17:05.170Z,101534.20
2023-01-22T09:19:17.845Z,101538.41
2023-01-22T09:21:30.437Z,101542.41
2023-01-22T09:23:42.944Z,101557.85
2023-01-22T09:25:55.653Z,101563.67
2023-01-22T09:28:09.155Z,101563.61
2023-01-22T09:30:22.281Z,101564.64
2023-01-22T09:32:35.525Z,101565.52
2023-01-22T09:34:48.092Z,101560.75
2023-01-22T09:37:05.356Z,101555.52
2023-01-22T09:39:18.287Z,101561.09
2023-01-22T09:41:39.769Z,101554.01
2023-01-22T09:43:57.778Z,101554.27
2023-01-22T09:46:19.690Z,101558.24
2023-01-22T09:48:40.985Z,101556.14
2023-01-22T09:50:53.646Z,101560.11
2023-01-22T09:53:11.531Z,101558.56
2023-01-22T09:55:30.393Z,101562.55
2023-01-22T09:57:52.517Z,101555.34
2023-01-22T10:00:15.735Z,101559.80
2023-01-22T10:02:31.317Z,101564.15
2023-01-22T10:04:45.309Z,101560.98
2023-01-22T10:07:01.150Z,101553.23
2023-01-22T10:09:19.300Z,101554.61
2023-01-22T10:11:31.940Z,101554.14
2023-01-22T10:13:44.635Z,101552.58
2023-01-22T10:15:57.719Z,101550.04
2023-01-22T10:18:33.410Z,101548.53
2023-01-22T10:20:46.178Z,101547.13
2023-01-22T10:23:14.089Z,101543.68
2023-01-22T10:25:27.074Z,101542.30
2023-01-22T10:27:40.125Z,101545.75
2023-01-22T10:29:59.946Z,101547.64
2023-01-22T10:32:20.782Z,101543.23
2023-01-22T10:34:37.060Z,101545.13
2023-01-22T10:36:52.363Z,101541.48
2023-01-22T10:39:13.923Z,101545.04
2023-01-22T10:41:29.773Z,101535.54
2023-01-22T10:43:42.339Z,101535.87
2023-01-22T10:45:59.508Z,101536.48
2023-01-22T10:48:14.885Z,101538.98
2023-01-22T10:50:27.426Z,101542.14
2023-01-22T10:52:44.987Z,101546.02
2023-01-22T10:54:59.877Z,101547.42
2023-01-22T10:57:35.676Z,101550.07
2023-01-22T10:59:52.476Z,101552.92
2023-01-22T11:02:24.161Z,101556.55
2023-01-22T11:04:38.029Z,101558.52
2023-01-22T11:06:54.477Z,101557.38
2023-01-22T11:09:15.378Z,101555.04
2023-01-22T11:11:35.676Z,101552.38
2023-01-22T11:13:58.181Z,101555.98
2023-01-22T11:16:22.247Z,101559.20
2023-01-22T11:18:40.739Z,101554.74
2023-01-22T11:20:56.874Z,101554.61
2023-01-22T11:23:09.438Z,101556.88
2023-01-22T11:25:22.050Z,101557.29
2023-01-22T11:27:49.775Z,101553.87
2023-01-22T11:30:26.667Z,101556.79
2023-01-22T11:33:18.259Z,101564.09
2023-01-22T11:35:43.703Z,101562.67
2023-01-22T11:38:17.593Z,101560.78
2023-01-22T11:40:34.914Z,101560.77
2023-01-22T11:43:24.464Z,101555.63
2023-01-22T11:45:59.035Z,101553.31
2023-01-22T11:48:23.709Z,101558.55
2023-01-22T11:50:57.235Z,101562.76
2023-01-22T11:53:35.043Z,101564.58
2023-01-22T11:56:06.044Z,101563.16
2023-01-22T11:58:53.857Z,101564.14
2023-01-22T12:01:33.834Z,101558.42
2023-01-22T12:04:40.212Z,101555.83
2023-01-22T12:07:03.129Z,101557.11
2023-01-22T12:09:35.346Z,101551.52
2023-01-22T12:12:18.295Z,101550.57
2023-01-22T12:15:12.131Z,101549.80
2023-01-22T12:17:37.022Z,101545.27
2023-01-22T12:20:01.995Z,101540.92
2023-01-22T12:22:33.139Z,101542.07
2023-01-22T12:24:58.603Z,101541.97
2023-01-22T12:27:26.832Z,101538.77
2023-01-22T12:30:19.967Z,101536.59
2023-01-22T12:32:36.723Z,101537.65
2023-01-22T12:35:02.617Z,101532.77
2023-01-22T12:37:19.952Z,101534.35
2023-01-22T12:40:06.430Z,101533.17
2023-01-22T12:42:35.479Z,101530.27
2023-01-22T12:45:20.928Z,101529.61
2023-01-22T12:47:48.243Z,101537.13
2023-01-22T12:50:00.889Z,101536.22
2023-01-22T12:52:43.242Z,101532.94
2023-01-22T12:54:56.427Z,101536.67
2023-01-22T12:57:24.466Z,101537.40
2023-01-22T12:59:49.980Z,101543.25
2023-01-22T13:02:06.243Z,101543.54
2023-01-22T13:04:28.863Z,101549.95
2023-01-22T13:06:43.637Z,101555.02
2023-01-22T13:08:56.376Z,101559.28
2023-01-22T13:11:14.895Z,101556.03
2023-01-22T13:13:44.924Z,101554.72
2023-01-22T13:16:05.120Z,101560.45
2023-01-22T13:18:30.829Z,101560.45
2023-01-22T13:20:51.903Z,101561.52
2023-01-22T13:23:07.670Z,101563.58
2023-01-22T13:25:33.472Z,101568.54
2023-01-22T13:27:46.903Z,101569.37
2023-01-22T13:30:07.957Z,101574.14
2023-01-22T13:32:22.922Z,101576.02
2023-01-22T13:34:35.571Z,101576.38
2023-01-22T13:36:50.018Z,101575.05
2023-01-22T13:39:02.880Z,101579.01
2023-01-22T13:41:27.230Z,101576.90
2023-01-22T13:43:41.729Z,101577.39
2023-01-22T13:45:56.878Z,101581.33
2023-01-22T13:48:15.531Z,101583.73
2023-01-22T13:50:30.359Z,101586.05
2023-01-22T13:52:43.034Z,101589.30
2023-01-22T13:55:12.446Z,101589.65
2023-01-22T13:57:26.009Z,101584.72
2023-01-22T13:59:38.679Z,101583.55
2023-01-22T14:01:52.003Z,101585.08
2023-01-22T14:04:29.539Z,101581.15
2023-01-22T14:06:49.550Z,101577.23
2023-01-22T14:09:02.505Z,101584.45
2023-01-22T14:11:15.822Z,101591.97
2023-01-22T14:13:39.133Z,101595.70
2023-01-22T14:16:00.236Z,101593.75
2023-01-22T14:18:16.151Z,101583.77
2023-01-22T14:20:28.848Z,101578.09
2023-01-22T14:22:41.595Z,101579.10
2023-01-22T14:24:54.738Z,101578.40
2023-01-22T14:27:07.700Z,101581.24
2023-01-22T14:29:20.297Z,101586.15
2023-01-22T14:31:33.082Z,101587.48
2023-01-22T14:33:45.669Z,101593.20
2023-01-22T14:35:59.030Z,101595.86
2023-01-22T14:38:11.763Z,101597.38
2023-01-22T14:40:25.881Z,101598.19
2023-01-22T14:42:38.738Z,101600.58
2023-01-22T14:44:51.368Z,101599.66
2023-01-22T14:47:04.266Z,101605.00
2023-01-22T14:49:16.870Z,101612.38
2023-01-22T14:51:29.500Z,101617.61
2023-01-22T14:53:42.151Z,101615.98
2023-01-22T14:55:54.753Z,101617.52
2023-01-22T14:58:07.532Z,101616.84
2023-01-22T15:00:20.567Z,101618.92
2023-01-22T15:02:35.446Z,101616.39
2023-01-22T15:04:48.099Z,101615.84
2023-01-22T15:07:00.676Z,101619.77
2023-01-22T15:09:13.257Z,101624.57
2023-01-22T15:11:25.841Z,101626.95
2023-01-22T15:13:38.401Z,101624.73
2023-01-22T15:15:50.993Z,101626.77
2023-01-22T15:18:03.673Z,101628.14
2023-01-22T15:20:16.874Z,101629.66
2023-01-22T15:22:29.568Z,101633.43
2023-01-22T15:24:43.836Z,101634.73
2023-01-22T15:26:56.500Z,101638.30
2023-01-22T15:29:11.407Z,101639.96
2023-01-22T15:31:24.135Z,101640.58
2023-01-22T15:33:37.559Z,101642.64
2023-01-22T15:35:50.612Z,101648.09
2023-01-22T15:38:05.436Z,101649.11
2023-01-22T15:40:18.398Z,101653.02
2023-01-22T15:42:31.423Z,101659.64
2023-01-22T15:44:44.127Z,101660.30
2023-01-22T15:46:58.801Z,101665.80
2023-01-22T15:49:13.329Z,101664.88
2023-01-22T15:51:27.774Z,101670.15
2023-01-22T15:53:41.773Z,101671.30
2023-01-22T15:55:54.396Z,101674.36
2023-01-22T15:58:06.880Z,101680.49
2023-01-22T16:00:21.104Z,101682.50
2023-01-22T16:02:33.699Z,101683.19
2023-01-22T16:04:46.392Z,101689.70
2023-01-22T16:06:59.050Z,101690.88
2023-01-22T16:09:11.790Z,101693.41
2023-01-22T16:11:26.225Z,101694.09
2023-01-22T16:13:39.027Z,101694.09
2023-01-22T16:16:07.263Z,101691.89
2023-01-22T16:18:19.805Z,101694.98
2023-01-22T16:20:32.333Z,101693.12
2023-01-22T16:22:45.907Z,101693.66
2023-01-22T16:24:58.478Z,101697.44
2023-01-22T16:27:11.098Z,101699.64
2023-01-22T16:29:24.314Z,101704.77
2023-01-22T16:31:37.433Z,101703.57
2023-01-22T16:33:54.433Z,101705.61
2023-01-22T16:36:12.457Z,101704.04
2023-01-22T16:38:25.879Z,101704.33
2023-01-22T16:40:38.866Z,101708.05
2023-01-22T16:42:59.583Z,101711.09
2023-01-22T16:45:12.143Z,101716.20
2023-01-22T16:47:24.699Z,101717.88
2023-01-22T16:49:37.243Z,101719.44
2023-01-22T16:51:54.230Z,101719.45
2023-01-22T16:54:07.965Z,101715.16
2023-01-22T16:56:20.707Z,101714.65
2023-01-22T16:58:33.282Z,101718.08
2023-01-22T17:00:47.312Z,101722.16
2023-01-22T17:03:00.466Z,101727.11
2023-01-22T17:05:14.002Z,101730.29
2023-01-22T17:07:33.706Z,101731.82
2023-01-22T17:09:46.649Z,101730.60
2023-01-22T17:12:02.494Z,101731.77
2023-01-22T17:14:18.009Z,101730.70
2023-01-22T17:16:30.772Z,101733.92
2023-01-22T17:18:43.673Z,101739.27
2023-01-22T17:21:02.728Z,101738.96
2023-01-22T17:23:15.427Z,101739.00
2023-01-22T17:25:27.991Z,101740.09
2023-01-22T17:27:40.640Z,101747.20
2023-01-22T17:29:53.478Z,101749.07
2023-01-22T17:32:07.447Z,101752.56
2023-01-22T17:34:20.353Z,101753.45
2023-01-22T17:36:33.098Z,101754.20
2023-01-22T17:38:45.945Z,101756.56
2023-01-22T17:41:05.337Z,101760.04
2023-01-22T17:43:18.136Z,101762.77
2023-01-22T17:45:30.749Z,101763.48
2023-01-22T17:47:44.601Z,101766.77
2023-01-22T17:49:57.503Z,101767.27
2023-01-22T17:52:11.335Z,101766.55
2023-01-22T17:54:24.196Z,101769.39
2023-01-22T17:56:43.171Z,101769.52
2023-01-22T17:58:58.334Z,101773.59
2023-01-22T18:01:13.041Z,101773.73
2023-01-22T18:03:25.897Z,101778.92
2023-01-22T18:05:38.733Z,101778.95
2023-01-22T18:07:51.798Z,101780.13
2023-01-22T18:10:04.856Z,101785.20
2023-01-22T18:12:17.433Z,101786.77
2023-01-22T18:14:33.880Z,101784.88
2023-01-22T18:16:46.732Z,101788.63
2023-01-22T18:19:03.591Z,101788.98
2023-01-22T18:21:19.197Z,101790.70
2023-01-22T18:23:31.866Z,101792.98
2023-01-22T18:25:50.543Z,101793.17
2023-01-22T18:28:03.121Z,101795.11
2023-01-22T18:30:16.330Z,101795.38
2023-01-22T18:32:29.137Z,101798.92
2023-01-22T18:34:41.889Z,101802.15
2023-01-22T18:36:54.981Z,101805.14
2023-01-22T18:39:11.951Z,101805.85
2023-01-22T18:41:26.224Z,101811.67
2023-01-22T18:43:39.897Z,101813.55
2023-01-22T18:45:52.934Z,101812.52
2023-01-22T18:48:06.653Z,101811.98
2023-01-22T18:50:21.071Z,101816.44
2023-01-22T18:52:33.966Z,101816.40
2023-01-22T18:54:46.826Z,101819.83
2023-01-22T18:56:59.671Z,101822.93
2023-01-22T18:59:13.079Z,101828.84
2023-01-22T19:01:31.939Z,101829.42
2023-01-22T19:03:48.103Z,101832.11
2023-01-22T19:06:03.814Z,101837.39
2023-01-22T19:08:17.325Z,101836.45
2023-01-22T19:10:29.976Z,101836.92
2023-01-22T19:12:42.888Z,101839.95
2023-01-22T19:14:55.451Z,101845.75
2023-01-22T19:17:08.083Z,101847.64
2023-01-22T19:19:22.739Z,101848.48
2023-01-22T19:21:35.681Z,101850.23
2023-01-22T19:23:52.902Z,101853.52
2023-01-22T19:26:15.425Z,101858.47
2023-01-22T19:28:27.995Z,101858.32
2023-01-22T19:30:40.899Z,101859.05
2023-01-22T19:32:55.317Z,101862.86
2023-01-22T19:35:09.848Z,101867.86
2023-01-22T19:37:23.389Z,101866.56
2023-01-22T19:39:36.523Z,101870.67
2023-01-22T19:41:49.336Z,101872.42
2023-01-22T19:44:54.774Z,101869.83
2023-01-22T19:47:08.437Z,101878.36
2023-01-22T19:49:21.502Z,101878.19
2023-01-22T19:51:35.066Z,101880.30
2023-01-22T19:53:48.959Z,101883.30
2023-01-22T19:56:02.150Z,101885.46
2023-01-22T19:58:14.835Z,101889.67
2023-01-22T20:00:27.514Z,101886.84
2023-01-22T20:02:41.156Z,101889.27
2023-01-22T20:04:53.998Z,101893.21
2023-01-22T20:07:06.653Z,101892.98
2023-01-22T20:09:21.636Z,101895.36
2023-01-22T20:11:34.402Z,101898.09
2023-01-22T20:13:48.698Z,101894.15
2023-01-22T20:16:01.949Z,101895.41
2023-01-22T20:18:14.834Z,101893.58
2023-01-22T20:20:27.777Z,101894.09
2023-01-22T20:22:40.401Z,101897.41
2023-01-22T20:24:53.026Z,101895.91
2023-01-22T20:27:06.976Z,101894.73
2023-01-22T20:29:19.969Z,101894.78
2023-01-22T20:31:32.662Z,101893.04
2023-01-22T20:33:46.059Z,101895.06
2023-01-22T20:36:01.126Z,101892.84
2023-01-22T20:38:13.922Z,101893.18
2023-01-22T20:40:26.536Z,101894.67
2023-01-22T20:42:39.516Z,101899.51
2023-01-22T20:44:52.490Z,101897.43
2023-01-22T20:47:05.400Z,101897.61
2023-01-22T20:49:18.006Z,101902.08
2023-01-22T20:51:30.883Z,101906.02
2023-01-22T20:53:45.211Z,101904.71
2023-01-22T20:56:07.397Z,101905.75
2023-01-22T20:58:19.944Z,101905.09
2023-01-22T21:00:32.631Z,101905.61
2023-01-22T21:02:45.440Z,101904.60
2023-01-22T21:04:58.254Z,101906.13
2023-01-22T21:07:10.855Z,101901.34
2023-01-22T21:09:23.489Z,101907.67
2023-01-22T21:11:37.890Z,101909.38
2023-01-22T21:13:52.701Z,101909.63
2023-01-22T21:16:16.660Z,101911.60
2023-01-22T21:18:29.268Z,101915.48
2023-01-22T21:20:41.951Z,101917.73
2023-01-22T21:22:54.662Z,101918.29
2023-01-22T21:25:08.287Z,101923.25
2023-01-22T21:27:20.978Z,101920.50
2023-01-22T21:29:33.888Z,101924.60
2023-01-22T21:31:51.093Z,101925.83
2023-01-22T21:34:06.480Z,101932.21
2023-01-22T21:36:19.643Z,101931.67
2023-01-22T21:38:32.647Z,101941.25
2023-01-22T21:40:45.244Z,101941.79
2023-01-22T21:43:16.265Z,101943.34
2023-01-22T21:45:47.211Z,101944.19
2023-01-22T21:47:59.741Z,101945.11
2023-01-22T21:50:12.301Z,101947.89
2023-01-22T21:52:26.168Z,101951.56
2023-01-22T21:54:41.252Z,101950.73
2023-01-22T21:56:54.493Z,101952.66
2023-01-22T21:59:07.215Z,101955.48
2023-01-22T22:01:22.136Z,101956.69
2023-01-22T22:03:35.764Z,101959.26
2023-01-22T22:05:56.549Z,101957.35
2023-01-22T22:08:09.188Z,101959.98
2023-01-22T22:10:21.875Z,101957.73
2023-01-22T22:12:34.533Z,101958.65
2023-01-22T22:14:47.209Z,101963.02
2023-01-22T22:16:59.874Z,101963.38
2023-01-22T22:19:14.222Z,101966.08
2023-01-22T22:21:26.879Z,101971.70
2023-01-22T22:23:39.485Z,101976.86
2023-01-22T22:25:52.066Z,101980.69
2023-01-22T22:28:04.842Z,101983.90
2023-01-22T22:30:17.941Z,101985.50
2023-01-22T22:32:30.695Z,101986.33
2023-01-22T22:34:43.264Z,101989.73
2023-01-22T22:36:55.817Z,101996.23
2023-01-22T22:39:08.432Z,101998.73
2023-01-22T22:41:26.720Z,102003.61
2023-01-22T22:43:44.317Z,102005.20
2023-01-22T22:46:01.892Z,101998.80
2023-01-22T22:48:14.502Z,102001.50
2023-01-22T22:50:27.451Z,102002.25
2023-01-22T22:52:40.107Z,102003.36
2023-01-22T22:54:53.044Z,102006.38
2023-01-22T22:57:05.648Z,102012.84
2023-01-22T22:59:19.835Z,102017.48
2023-01-22T23:01:33.246Z,102025.20
2023-01-22T23:03:46.534Z,102031.81
2023-01-22T23:06:11.943Z,102033.98
2023-01-22T23:08:24.601Z,102036.06
2023-01-22T23:10:38.789Z,102038.52
2023-01-22T23:12:51.365Z,102044.23
2023-01-22T23:15:04.632Z,102046.30
2023-01-22T23:17:17.198Z,102043.80
2023-01-22T23:19:30.357Z,102044.06
2023-01-22T23:21:44.159Z,102044.98
2023-01-22T23:23:56.791Z,102041.71
2023-01-22T23:26:12.471Z,102039.78
2023-01-22T23:28:25.123Z,102040.51
2023-01-22T23:30:39.199Z,102036.24
2023-01-22T23:32:51.845Z,102035.08
2023-01-22T23:35:05.816Z,102036.86
2023-01-22T23:37:18.371Z,102032.80
2023-01-22T23:39:30.910Z,102030.56
2023-01-22T23:41:44.524Z,102035.97
2023-01-22T23:43:57.285Z,102038.09
2023-01-22T23:46:13.611Z,102038.68
2023-01-22T23:48:27.220Z,102039.16
2023-01-22T23:50:44.126Z,102043.90
2023-01-22T23:52:56.621Z,102046.08
2023-01-22T23:55:10.716Z,102050.07
2023-01-22T23:57:23.411Z,102050.85
2023-01-22T23:59:35.995Z,102049.73
